PWSweather.com
Personal Weather Stations
Station Observations
COONRAPIDS
Minneapolis, MN 55433

Minneapolis, MN 55433

Lat: 45.187721, Lon: -93.36828

Elevation: 898

Station Type: Davis Vantage Pro 2

Latest ConditionsUpdated 5:20:00 PM CDT Sunday, Sep 25, 2016
Currently Today's Max Today's Min Today's Average
Temperature 58.9°F14.9°C 67.6°F19.8°C 58.6°F14.8°C 63.6°F17.6°C
Dew Point 52.4°F11.3°C 63.9°F17.7°C 51.0°F10.6°C 57.9°F14.4°C
Winds 5.8 mph WSW9.3 kmh WSW 9.2 mph W14.8 kmh W - 1.1 mph 1.8 kmh
Wind Gusts 10.4 mph16.7 kmh 17.3 mph27.8 kmh - -
Humidity 79% 90% 67% 82%
Pressure 29.86 in1011.2 mb 29.94 in1013.9 mb 29.82 in1009.8 mb -
Precipitation - 0.17 in4.3 mm - -
Hour Temp Dew Point Humidity Winds Wind Gusts Pressure Precip Precip Rate Daily Precip Total
05:20 PM 58.9°F14.9°C 52.4°F11.3°C 79% 5.8 mph WSW9.3 kmh WSW 10.4 mph16.7 kmh 29.86 in1011.2 mb - 0.00 in0.0 mm 0.17 in4.3 mm
05:10 PM 60.9°F16.1°C 52.6°F11.4°C 74% 9.2 mph W14.8 kmh W 17.3 mph27.8 kmh 29.86 in1011.2 mb - 0.00 in0.0 mm 0.17 in4.3 mm
05:00 PM 61.1°F16.2°C 54.2°F12.3°C 78% 2.3 mph WSW3.7 kmh WSW 4.6 mph7.4 kmh 29.84 in1010.5 mb - 0.00 in0.0 mm 0.17 in4.3 mm
04:50 PM 60.1°F15.6°C 54.6°F12.6°C 82% 3.5 mph W5.6 kmh W 8.1 mph13.0 kmh 29.84 in1010.5 mb - 0.00 in0.0 mm 0.17 in4.3 mm
04:40 PM 58.9°F14.9°C 54.0°F12.2°C 84% 1.2 mph W1.9 kmh W 5.8 mph9.3 kmh 29.84 in1010.5 mb - 0.00 in0.0 mm 0.17 in4.3 mm
04:30 PM 58.6°F14.8°C 53.5°F11.9°C 83% 2.3 mph W3.7 kmh W 3.5 mph5.6 kmh 29.84 in1010.5 mb - 0.01 in0.3 mm 0.17 in4.3 mm
04:20 PM 59.1°F15.1°C 53.3°F11.8°C 81% 2.3 mph WSW3.7 kmh WSW 4.6 mph7.4 kmh 29.85 in1010.8 mb - 0.00 in0.0 mm 0.16 in4.1 mm
04:10 PM 60.7°F15.9°C 54.1°F12.3°C 79% 2.3 mph W3.7 kmh W 11.5 mph18.5 kmh 29.85 in1010.8 mb - 0.00 in0.0 mm 0.16 in4.1 mm
04:00 PM 61.5°F16.4°C 53.8°F12.1°C 76% 3.5 mph WSW5.6 kmh WSW 6.9 mph11.1 kmh 29.84 in1010.5 mb - 0.01 in0.3 mm 0.16 in4.1 mm
03:50 PM 62.7°F17.1°C 53.9°F12.2°C 73% 2.3 mph W3.7 kmh W 4.6 mph7.4 kmh 29.84 in1010.5 mb - 0.00 in0.0 mm 0.15 in3.8 mm
03:40 PM 62.6°F17.0°C 53.8°F12.1°C 73% 1.2 mph WNW1.9 kmh WNW 4.6 mph7.4 kmh 29.83 in1010.2 mb - 0.00 in0.0 mm 0.15 in3.8 mm
03:30 PM 62.5°F16.9°C 54.1°F12.3°C 74% 2.3 mph WSW3.7 kmh WSW 3.5 mph5.6 kmh 29.84 in1010.5 mb - 0.00 in0.0 mm 0.15 in3.8 mm
03:20 PM 62.0°F16.7°C 54.4°F12.4°C 76% 3.5 mph WSW5.6 kmh WSW 8.1 mph13.0 kmh 29.84 in1010.5 mb - 0.00 in0.0 mm 0.15 in3.8 mm
03:10 PM 62.5°F16.9°C 54.1°F12.3°C 74% 2.3 mph WNW3.7 kmh WNW 1.2 mph1.9 kmh 29.84 in1010.5 mb - 0.00 in0.0 mm 0.15 in3.8 mm
03:00 PM 63.1°F17.3°C 52.8°F11.6°C 69% 2.3 mph SW3.7 kmh SW 5.8 mph9.3 kmh 29.84 in1010.5 mb - 0.00 in0.0 mm 0.15 in3.8 mm
02:50 PM 63.4°F17.4°C 53.0°F11.7°C 69% Calm Calm -- 29.84 in1010.5 mb - 0.00 in0.0 mm 0.15 in3.8 mm
02:40 PM 63.9°F17.7°C 53.1°F11.7°C 68% 2.3 mph W3.7 kmh W 1.2 mph1.9 kmh 29.84 in1010.5 mb - 0.00 in0.0 mm 0.15 in3.8 mm
02:30 PM 64.1°F17.8°C 53.3°F11.8°C 68% 1.2 mph W1.9 kmh W 1.2 mph1.9 kmh 29.84 in1010.5 mb - 0.00 in0.0 mm 0.15 in3.8 mm
02:20 PM 63.4°F17.4°C 52.7°F11.5°C 68% Calm Calm -- 29.84 in1010.5 mb - 0.00 in0.0 mm 0.15 in3.8 mm
02:10 PM 63.6°F17.6°C 53.2°F11.8°C 69% 1.2 mph WSW1.9 kmh WSW 3.5 mph5.6 kmh 29.84 in1010.5 mb - 0.00 in0.0 mm 0.15 in3.8 mm
02:00 PM 63.0°F17.2°C 53.1°F11.7°C 70% 1.2 mph SW1.9 kmh SW 6.9 mph11.1 kmh 29.85 in1010.8 mb - 0.00 in0.0 mm 0.15 in3.8 mm
01:50 PM 62.1°F16.7°C 52.9°F11.6°C 72% 2.3 mph WSW3.7 kmh WSW 4.6 mph7.4 kmh 29.85 in1010.8 mb - 0.00 in0.0 mm 0.15 in3.8 mm
01:40 PM 61.1°F16.2°C 52.4°F11.3°C 73% 1.2 mph W1.9 kmh W -- 29.86 in1011.2 mb - 0.00 in0.0 mm 0.15 in3.8 mm
01:30 PM 60.7°F15.9°C 52.0°F11.1°C 73% Calm Calm 1.2 mph1.9 kmh 29.86 in1011.2 mb - 0.00 in0.0 mm 0.15 in3.8 mm
01:20 PM 60.8°F16.0°C 51.7°F10.9°C 72% 2.3 mph W3.7 kmh W 5.8 mph9.3 kmh 29.86 in1011.2 mb - 0.00 in0.0 mm 0.15 in3.8 mm
01:10 PM 60.7°F15.9°C 51.9°F11.1°C 73% Calm Calm 3.5 mph5.6 kmh 29.87 in1011.5 mb - 0.00 in0.0 mm 0.15 in3.8 mm
01:00 PM 60.2°F15.7°C 51.5°F10.8°C 73% 2.3 mph WSW3.7 kmh WSW 5.8 mph9.3 kmh 29.87 in1011.5 mb - 0.00 in0.0 mm 0.15 in3.8 mm
12:50 PM 60.4°F15.8°C 51.0°F10.6°C 71% 6.9 mph SW11.1 kmh SW 12.7 mph20.4 kmh 29.87 in1011.5 mb - 0.00 in0.0 mm 0.15 in3.8 mm
12:40 PM 61.5°F16.4°C 52.0°F11.1°C 71% 1.2 mph WSW1.9 kmh WSW 8.1 mph13.0 kmh 29.87 in1011.5 mb - 0.00 in0.0 mm 0.15 in3.8 mm
12:30 PM 61.9°F16.6°C 52.3°F11.3°C 71% 3.5 mph W5.6 kmh W 8.1 mph13.0 kmh 29.86 in1011.2 mb - 0.00 in0.0 mm 0.15 in3.8 mm
12:20 PM 62.2°F16.8°C 52.3°F11.3°C 70% 1.2 mph W1.9 kmh W 11.5 mph18.5 kmh 29.86 in1011.2 mb - 0.00 in0.0 mm 0.15 in3.8 mm
12:10 PM 62.5°F16.9°C 53.0°F11.7°C 71% 3.5 mph SW5.6 kmh SW 3.5 mph5.6 kmh 29.85 in1010.8 mb - 0.00 in0.0 mm 0.15 in3.8 mm
12:00 PM 63.6°F17.6°C 52.4°F11.3°C 67% 4.6 mph SW7.4 kmh SW 8.1 mph13.0 kmh 29.85 in1010.8 mb - 0.00 in0.0 mm 0.15 in3.8 mm
11:50 AM 64.2°F17.9°C 53.4°F11.9°C 68% 3.5 mph W5.6 kmh W 8.1 mph13.0 kmh 29.84 in1010.5 mb - 0.00 in0.0 mm 0.15 in3.8 mm
11:40 AM 64.2°F17.9°C 54.6°F12.6°C 71% 2.3 mph WSW3.7 kmh WSW 11.5 mph18.5 kmh 29.84 in1010.5 mb - 0.00 in0.0 mm 0.15 in3.8 mm
11:30 AM 63.2°F17.3°C 54.0°F12.2°C 72% 3.5 mph NW5.6 kmh NW 4.6 mph7.4 kmh 29.84 in1010.5 mb - 0.00 in0.0 mm 0.15 in3.8 mm
11:20 AM 62.1°F16.7°C 53.7°F12.1°C 74% 3.5 mph WSW5.6 kmh WSW 6.9 mph11.1 kmh 29.84 in1010.5 mb - 0.00 in0.0 mm 0.15 in3.8 mm
11:10 AM 61.0°F16.1°C 53.4°F11.9°C 76% 4.6 mph WSW7.4 kmh WSW 11.5 mph18.5 kmh 29.84 in1010.5 mb - 0.00 in0.0 mm 0.15 in3.8 mm
11:00 AM 60.0°F15.6°C 53.5°F11.9°C 79% Calm Calm 4.6 mph7.4 kmh 29.84 in1010.5 mb - 0.00 in0.0 mm 0.15 in3.8 mm
10:50 AM 59.4°F15.2°C 53.6°F12.0°C 81% 1.2 mph WSW1.9 kmh WSW 5.8 mph9.3 kmh 29.84 in1010.5 mb - 0.00 in0.0 mm 0.15 in3.8 mm
10:40 AM 58.6°F14.8°C 53.1°F11.7°C 82% 2.3 mph W3.7 kmh W 3.5 mph5.6 kmh 29.85 in1010.8 mb - 0.00 in0.0 mm 0.15 in3.8 mm
10:30 AM 58.6°F14.8°C 52.8°F11.6°C 81% 2.3 mph W3.7 kmh W 3.5 mph5.6 kmh 29.84 in1010.5 mb - 0.00 in0.0 mm 0.15 in3.8 mm
10:20 AM 58.8°F14.9°C 53.3°F11.8°C 82% 2.3 mph WSW3.7 kmh WSW 3.5 mph5.6 kmh 29.84 in1010.5 mb - 0.00 in0.0 mm 0.15 in3.8 mm
10:10 AM 58.8°F14.9°C 53.3°F11.8°C 82% Calm Calm -- 29.84 in1010.5 mb - 0.00 in0.0 mm 0.15 in3.8 mm
10:00 AM 59.0°F15.0°C 53.2°F11.8°C 81% Calm Calm -- 29.84 in1010.5 mb - 0.00 in0.0 mm 0.15 in3.8 mm
09:50 AM 59.3°F15.2°C 53.8°F12.1°C 82% Calm Calm -- 29.85 in1010.8 mb - 0.00 in0.0 mm 0.15 in3.8 mm
09:40 AM 59.9°F15.5°C 54.7°F12.6°C 83% 1.2 mph W1.9 kmh W 3.5 mph5.6 kmh 29.85 in1010.8 mb - 0.00 in0.0 mm 0.15 in3.8 mm
09:30 AM 60.6°F15.9°C 56.0°F13.3°C 85% Calm Calm -- 29.84 in1010.5 mb - 0.00 in0.0 mm 0.15 in3.8 mm
09:20 AM 61.1°F16.2°C 57.2°F14.0°C 87% Calm Calm -- 29.85 in1010.8 mb - 0.00 in0.0 mm 0.15 in3.8 mm
09:10 AM 61.5°F16.4°C 58.3°F14.6°C 89% Calm Calm -- 29.85 in1010.8 mb - 0.00 in0.0 mm 0.15 in3.8 mm
09:00 AM 61.6°F16.4°C 58.3°F14.6°C 89% 1.2 mph WSW1.9 kmh WSW 3.5 mph5.6 kmh 29.84 in1010.5 mb - 0.00 in0.0 mm 0.15 in3.8 mm
08:50 AM 61.8°F16.6°C 58.5°F14.7°C 89% 1.2 mph SW1.9 kmh SW 2.3 mph3.7 kmh 29.84 in1010.5 mb - 0.00 in0.0 mm 0.15 in3.8 mm
08:40 AM 62.1°F16.7°C 59.1°F15.1°C 90% 3.5 mph WSW5.6 kmh WSW 5.8 mph9.3 kmh 29.84 in1010.5 mb - 0.00 in0.0 mm 0.15 in3.8 mm
08:30 AM 62.3°F16.8°C 59.3°F15.2°C 90% Calm Calm -- 29.84 in1010.5 mb - 0.00 in0.0 mm 0.15 in3.8 mm
08:20 AM 62.3°F16.8°C 59.0°F15.0°C 89% Calm Calm -- 29.82 in1009.8 mb - 0.02 in0.5 mm 0.15 in3.8 mm
08:10 AM 62.5°F16.9°C 59.2°F15.1°C 89% Calm Calm -- 29.83 in1010.2 mb - 0.00 in0.0 mm 0.13 in3.3 mm
08:00 AM 62.5°F16.9°C 59.5°F15.3°C 90% Calm Calm 1.2 mph1.9 kmh 29.83 in1010.2 mb - 0.02 in0.5 mm 0.13 in3.3 mm
07:50 AM 62.4°F16.9°C 59.1°F15.1°C 89% Calm Calm -- 29.84 in1010.5 mb - 0.02 in0.5 mm 0.11 in2.8 mm
07:40 AM 62.3°F16.8°C 59.0°F15.0°C 89% Calm Calm -- 29.83 in1010.2 mb - 0.00 in0.0 mm 0.09 in2.3 mm
07:30 AM 62.2°F16.8°C 58.9°F14.9°C 89% Calm Calm -- 29.83 in1010.2 mb - 0.00 in0.0 mm 0.09 in2.3 mm
07:20 AM 62.2°F16.8°C 58.6°F14.8°C 88% Calm Calm -- 29.83 in1010.2 mb - 0.00 in0.0 mm 0.09 in2.3 mm
07:10 AM 62.3°F16.8°C 58.7°F14.8°C 88% Calm Calm -- 29.83 in1010.2 mb - 0.01 in0.3 mm 0.09 in2.3 mm
07:00 AM 62.7°F17.1°C 59.1°F15.1°C 88% Calm Calm 4.6 mph7.4 kmh 29.84 in1010.5 mb - 0.01 in0.3 mm 0.08 in2.0 mm
06:50 AM 63.2°F17.3°C 59.3°F15.2°C 87% 1.2 mph WSW1.9 kmh WSW 1.2 mph1.9 kmh 29.84 in1010.5 mb - 0.02 in0.5 mm 0.07 in1.8 mm
06:40 AM 64.4°F18.0°C 59.8°F15.4°C 85% Calm Calm 3.5 mph5.6 kmh 29.83 in1010.2 mb - 0.04 in1.0 mm 0.05 in1.3 mm
06:30 AM 66.9°F19.4°C 62.6°F17.0°C 86% 3.5 mph WSW5.6 kmh WSW 8.1 mph13.0 kmh 29.84 in1010.5 mb - 0.00 in0.0 mm 0.01 in0.3 mm
06:20 AM 67.5°F19.7°C 63.8°F17.7°C 88% Calm Calm 4.6 mph7.4 kmh 29.82 in1009.8 mb - 0.00 in0.0 mm 0.01 in0.3 mm
06:10 AM 67.5°F19.7°C 63.8°F17.7°C 88% Calm Calm -- 29.83 in1010.2 mb - 0.00 in0.0 mm 0.01 in0.3 mm
06:00 AM 67.6°F19.8°C 63.9°F17.7°C 88% 1.2 mph SSE1.9 kmh SSE 1.2 mph1.9 kmh 29.83 in1010.2 mb - 0.00 in0.0 mm 0.01 in0.3 mm
05:50 AM 67.6°F19.8°C 63.9°F17.7°C 88% Calm Calm 2.3 mph3.7 kmh 29.83 in1010.2 mb - 0.00 in0.0 mm 0.01 in0.3 mm
05:40 AM 67.6°F19.8°C 63.9°F17.7°C 88% Calm Calm 1.2 mph1.9 kmh 29.83 in1010.2 mb - 0.00 in0.0 mm 0.01 in0.3 mm
05:30 AM 67.6°F19.8°C 63.9°F17.7°C 88% Calm Calm -- 29.84 in1010.5 mb - 0.01 in0.3 mm 0.01 in0.3 mm
05:20 AM 67.5°F19.7°C 63.8°F17.7°C 88% Calm Calm -- 29.84 in1010.5 mb - 0.00 in0.0 mm 0.00 in0.0 mm
05:10 AM 67.4°F19.7°C 63.7°F17.6°C 88% Calm Calm -- 29.84 in1010.5 mb - 0.00 in0.0 mm 0.00 in0.0 mm
05:00 AM 67.4°F19.7°C 63.4°F17.4°C 87% Calm Calm 2.3 mph3.7 kmh 29.84 in1010.5 mb - 0.00 in0.0 mm 0.00 in0.0 mm
04:50 AM 67.3°F19.6°C 63.3°F17.4°C 87% Calm Calm -- 29.84 in1010.5 mb - 0.00 in0.0 mm 0.00 in0.0 mm
04:40 AM 67.3°F19.6°C 63.3°F17.4°C 87% Calm Calm -- 29.84 in1010.5 mb - 0.00 in0.0 mm 0.00 in0.0 mm
04:30 AM 67.3°F19.6°C 63.3°F17.4°C 87% Calm Calm -- 29.85 in1010.8 mb - 0.00 in0.0 mm 0.00 in0.0 mm
04:20 AM 67.3°F19.6°C 63.3°F17.4°C 87% Calm Calm 1.2 mph1.9 kmh 29.86 in1011.2 mb - 0.00 in0.0 mm 0.00 in0.0 mm
04:10 AM 67.3°F19.6°C 63.3°F17.4°C 87% Calm Calm 1.2 mph1.9 kmh 29.85 in1010.8 mb - 0.00 in0.0 mm 0.00 in0.0 mm
04:00 AM 67.2°F19.6°C 63.2°F17.3°C 87% Calm Calm -- 29.86 in1011.2 mb - 0.00 in0.0 mm 0.00 in0.0 mm
03:50 AM 67.1°F19.5°C 63.1°F17.3°C 87% Calm Calm -- 29.86 in1011.2 mb - 0.00 in0.0 mm 0.00 in0.0 mm
03:40 AM 67.0°F19.4°C 63.0°F17.2°C 87% Calm Calm -- 29.86 in1011.2 mb - 0.00 in0.0 mm 0.00 in0.0 mm
03:30 AM 66.9°F19.4°C 63.2°F17.3°C 88% Calm Calm -- 29.87 in1011.5 mb - 0.00 in0.0 mm 0.00 in0.0 mm
03:20 AM 66.8°F19.3°C 63.1°F17.3°C 88% Calm Calm -- 29.87 in1011.5 mb - 0.00 in0.0 mm 0.00 in0.0 mm
03:10 AM 66.8°F19.3°C 63.1°F17.3°C 88% Calm Calm -- 29.87 in1011.5 mb - 0.00 in0.0 mm 0.00 in0.0 mm
03:00 AM 66.8°F19.3°C 63.1°F17.3°C 88% Calm Calm -- 29.87 in1011.5 mb - 0.00 in0.0 mm 0.00 in0.0 mm
02:50 AM 66.8°F19.3°C 62.8°F17.1°C 87% Calm Calm -- 29.88 in1011.9 mb - 0.00 in0.0 mm 0.00 in0.0 mm
02:40 AM 66.8°F19.3°C 62.8°F17.1°C 87% Calm Calm 1.2 mph1.9 kmh 29.89 in1012.2 mb - 0.00 in0.0 mm 0.00 in0.0 mm
02:30 AM 66.7°F19.3°C 62.7°F17.1°C 87% Calm Calm -- 29.89 in1012.2 mb - 0.00 in0.0 mm 0.00 in0.0 mm
02:20 AM 66.7°F19.3°C 62.7°F17.1°C 87% Calm Calm 1.2 mph1.9 kmh 29.89 in1012.2 mb - 0.00 in0.0 mm 0.00 in0.0 mm
02:10 AM 66.7°F19.3°C 62.7°F17.1°C 87% Calm Calm -- 29.90 in1012.5 mb - 0.00 in0.0 mm 0.00 in0.0 mm
02:00 AM 66.8°F19.3°C 62.8°F17.1°C 87% Calm Calm -- 29.90 in1012.5 mb - 0.00 in0.0 mm 0.00 in0.0 mm
01:50 AM 66.9°F19.4°C 62.6°F17.0°C 86% Calm Calm -- 29.89 in1012.2 mb - 0.00 in0.0 mm 0.00 in0.0 mm
01:40 AM 66.9°F19.4°C 62.6°F17.0°C 86% Calm Calm -- 29.90 in1012.5 mb - 0.00 in0.0 mm 0.00 in0.0 mm
01:30 AM 66.9°F19.4°C 62.6°F17.0°C 86% Calm Calm -- 29.90 in1012.5 mb - 0.00 in0.0 mm 0.00 in0.0 mm
01:20 AM 66.9°F19.4°C 62.2°F16.8°C 85% Calm Calm -- 29.90 in1012.5 mb - 0.00 in0.0 mm 0.00 in0.0 mm
01:10 AM 66.9°F19.4°C 62.6°F17.0°C 86% Calm Calm -- 29.91 in1012.9 mb - 0.00 in0.0 mm 0.00 in0.0 mm
01:00 AM 66.9°F19.4°C 62.6°F17.0°C 86% Calm Calm -- 29.91 in1012.9 mb - 0.00 in0.0 mm 0.00 in0.0 mm
12:50 AM 66.8°F19.3°C 62.1°F16.7°C 85% Calm Calm -- 29.91 in1012.9 mb - 0.00 in0.0 mm 0.00 in0.0 mm
12:40 AM 66.7°F19.3°C 62.1°F16.7°C 85% Calm Calm -- 29.92 in1013.2 mb - 0.00 in0.0 mm 0.00 in0.0 mm
12:30 AM 66.7°F19.3°C 62.0°F16.7°C 85% Calm Calm 2.3 mph3.7 kmh 29.93 in1013.5 mb - 0.00 in0.0 mm 0.00 in0.0 mm
12:20 AM 66.7°F19.3°C 62.0°F16.7°C 85% Calm Calm -- 29.93 in1013.5 mb - 0.00 in0.0 mm 0.00 in0.0 mm
12:10 AM 66.6°F19.2°C 61.9°F16.6°C 85% Calm Calm 1.2 mph1.9 kmh 29.93 in1013.5 mb - 0.00 in0.0 mm 0.00 in0.0 mm
12:00 AM 66.6°F19.2°C 61.9°F16.6°C 85% Calm Calm -- 29.94 in1013.9 mb - 0.00 in0.0 mm 0.00 in0.0 mm